Time;durP1;ratioP1;P1;durP2;ratioP2;P2;SDS_P1;SDS_P2;PMS_P1;PMS_P2;Temp;Humidity;BMP_temperature;BMP_pressure;BME280_temperature;BME280_humidity;BME280_pressure;Samples;Min_cycle;Max_cycle;Signal;HPM_P1;HPM_P2
2023/06/26 00:01:14;;;;;;;23.70;16.02;;;;;;;18.81;87.03;93786.16;5084560;28;20062;-77
2023/06/26 00:03:40;;;;;;;24.52;14.77;;;;;;;18.72;87.79;93780.97;5084939;28;20031;-77
2023/06/26 00:06:05;;;;;;;22.23;15.18;;;;;;;18.70;87.93;93785.97;5084255;28;20016;-77
2023/06/26 00:08:31;;;;;;;23.45;15.65;;;;;;;18.67;88.34;93777.84;5084748;28;20080;-77
2023/06/26 00:10:56;;;;;;;21.20;14.50;;;;;;;18.73;87.99;93781.78;5084561;28;20024;-77
2023/06/26 00:13:23;;;;;;;24.58;15.32;;;;;;;18.72;88.10;93774.81;5084572;28;20096;-77
2023/06/26 00:15:49;;;;;;;23.52;15.00;;;;;;;18.67;88.43;93775.16;5084426;28;20024;-77
2023/06/26 00:18:14;;;;;;;20.33;14.68;;;;;;;18.67;88.20;93777.84;5084573;28;20214;-77
2023/06/26 00:20:40;;;;;;;26.75;14.23;;;;;;;18.69;88.27;93784.44;5084357;28;20043;-78
2023/06/26 00:23:07;;;;;;;27.48;15.18;;;;;;;18.58;88.51;93781.59;5084526;28;20027;-77
2023/06/26 00:25:33;;;;;;;23.38;14.10;;;;;;;18.64;88.31;93780.13;5084338;28;20017;-77
2023/06/26 00:27:58;;;;;;;26.25;14.52;;;;;;;18.70;88.14;93777.88;5084321;28;20051;-77
2023/06/26 00:30:24;;;;;;;19.85;13.88;;;;;;;18.67;88.30;93773.22;5084267;28;20012;-78
2023/06/26 00:32:50;;;;;;;22.45;14.02;;;;;;;18.59;88.17;93777.72;5084158;28;20016;-77
2023/06/26 00:35:16;;;;;;;19.85;13.63;;;;;;;18.63;88.08;93767.75;5099786;28;20020;-77
2023/06/26 00:37:42;;;;;;;24.45;12.60;;;;;;;18.59;88.60;93769.63;5084132;28;20038;-77
2023/06/26 00:40:08;;;;;;;19.05;12.88;;;;;;;18.53;88.61;93771.09;5084205;28;20030;-78
2023/06/26 00:42:34;;;;;;;27.67;13.07;;;;;;;18.45;89.48;93769.44;5084236;28;20087;-78
2023/06/26 00:44:59;;;;;;;25.10;13.10;;;;;;;18.47;89.38;93771.78;5083773;28;20039;-77
2023/06/26 00:47:25;;;;;;;18.08;12.80;;;;;;;18.44;89.14;93771.38;5083897;28;20038;-78
2023/06/26 00:49:51;;;;;;;17.50;11.27;;;;;;;18.37;89.80;93765.09;5083717;28;20404;-77
2023/06/26 00:52:17;;;;;;;18.02;11.95;;;;;;;18.36;89.57;93758.13;5083868;28;20051;-77
2023/06/26 00:54:43;;;;;;;22.88;11.88;;;;;;;18.38;89.78;93756.66;5083699;28;20024;-77
2023/06/26 00:57:09;;;;;;;19.70;12.25;;;;;;;18.37;89.97;93757.00;5083731;28;20361;-77
2023/06/26 00:59:35;;;;;;;19.17;11.75;;;;;;;18.37;89.73;93759.69;5083762;28;20070;-77
2023/06/26 01:02:00;;;;;;;18.20;10.65;;;;;;;18.37;89.56;93754.31;5065782;28;20215;-77
2023/06/26 01:04:27;;;;;;;19.30;12.27;;;;;;;18.35;89.54;93751.19;5083451;28;20027;-77
2023/06/26 01:06:54;;;;;;;18.63;11.77;;;;;;;18.42;89.39;93754.78;5083685;28;20024;-77
2023/06/26 01:09:20;;;;;;;24.88;11.82;;;;;;;18.35;89.84;93740.41;5083607;28;20040;-77
2023/06/26 01:11:46;;;;;;;16.67;11.38;;;;;;;18.39;89.20;93744.69;5083442;28;20020;-77
2023/06/26 01:14:12;;;;;;;18.83;12.07;;;;;;;18.38;88.78;93737.75;5083400;28;20024;-78
2023/06/26 01:16:40;;;;;;;15.98;10.65;;;;;;;18.33;88.80;93729.97;5083532;28;20020;-77
2023/06/26 01:19:24;;;;;;;18.08;11.70;;;;;;;18.33;88.81;93737.28;5082786;28;20043;-78
2023/06/26 01:22:11;;;;;;;16.02;11.55;;;;;;;18.33;88.52;93740.00;5083301;28;20024;-78
2023/06/26 01:24:39;;;;;;;17.45;11.57;;;;;;;18.36;88.20;93723.06;5083457;28;20195;-78
2023/06/26 01:27:06;;;;;;;23.55;12.00;;;;;;;18.37;87.99;93727.31;5083363;28;20103;-77
2023/06/26 01:29:33;;;;;;;18.30;11.73;;;;;;;18.25;88.95;93718.28;5064225;28;20245;-77
2023/06/26 01:32:00;;;;;;;24.27;11.35;;;;;;;18.23;89.20;93720.56;5082278;28;20306;-78
2023/06/26 01:34:26;;;;;;;18.65;11.23;;;;;;;18.24;88.81;93724.84;5081777;28;20020;-78
2023/06/26 01:36:52;;;;;;;20.60;10.80;;;;;;;18.18;88.75;93714.75;5082770;28;20032;-78
2023/06/26 01:39:19;;;;;;;19.08;11.73;;;;;;;18.19;89.07;93713.59;5082934;28;20024;-77
2023/06/26 01:41:45;;;;;;;17.52;11.88;;;;;;;18.12;88.46;93714.28;5082989;28;20050;-77
2023/06/26 01:44:27;;;;;;;15.73;11.90;;;;;;;18.06;89.02;93723.81;5083026;28;20044;-77
2023/06/26 01:47:01;;;;;;;15.80;11.15;;;;;;;18.09;89.12;93715.00;5082974;28;20012;-78
2023/06/26 01:49:35;;;;;;;18.50;11.55;;;;;;;18.08;89.01;93718.06;5082783;28;20063;-77
2023/06/26 01:52:08;;;;;;;19.33;11.50;;;;;;;18.05;88.77;93714.16;5082921;28;20103;-77
2023/06/26 01:54:39;;;;;;;17.10;12.05;;;;;;;18.07;88.75;93717.28;5065123;28;20020;-77
2023/06/26 01:57:06;;;;;;;27.40;12.80;;;;;;;18.12;88.20;93706.19;5082942;28;20044;-77
2023/06/26 01:59:33;;;;;;;27.90;13.50;;;;;;;18.15;87.64;93710.06;5082698;28;20028;-77
2023/06/26 02:02:01;;;;;;;15.80;11.73;;;;;;;18.11;87.78;93714.63;5082832;28;20029;-77
2023/06/26 02:04:26;;;;;;;18.80;11.50;;;;;;;18.17;87.46;93713.16;5082775;28;20029;-77
2023/06/26 02:06:52;;;;;;;18.33;11.18;;;;;;;18.21;87.41;93709.38;5064818;28;20028;-77
2023/06/26 02:09:17;;;;;;;17.98;11.38;;;;;;;18.18;86.50;93710.13;5098477;28;20078;-77
2023/06/26 02:11:43;;;;;;;15.52;10.48;;;;;;;18.18;86.67;93710.13;5082641;28;20118;-77
2023/06/26 02:14:10;;;;;;;17.95;11.75;;;;;;;18.25;86.14;93709.44;5082946;28;20040;-77
2023/06/26 02:16:35;;;;;;;16.67;11.25;;;;;;;18.26;86.06;93711.00;5082724;28;20032;-77
2023/06/26 02:19:01;;;;;;;16.42;11.32;;;;;;;18.28;85.88;93714.13;5082560;28;20020;-76
2023/06/26 02:21:26;;;;;;;15.77;11.45;;;;;;;18.27;85.86;93717.94;5082389;28;20020;-76
2023/06/26 02:23:52;;;;;;;14.45;11.32;;;;;;;18.14;86.03;93705.81;5064639;28;20020;-77
2023/06/26 02:26:17;;;;;;;15.05;11.77;;;;;;;18.08;85.99;93710.75;5082427;28;20021;-77
2023/06/26 02:28:42;;;;;;;18.02;12.63;;;;;;;18.13;86.30;93709.66;5082390;28;20070;-78
2023/06/26 02:31:08;;;;;;;32.13;12.63;;;;;;;18.08;86.38;93702.66;5086654;28;20012;-76
2023/06/26 02:33:33;;;;;;;17.60;13.27;;;;;;;18.00;87.30;93709.09;5068667;28;20021;-76
2023/06/26 02:35:59;;;;;;;19.98;12.38;;;;;;;17.98;87.44;93711.38;5086433;28;20025;-77
2023/06/26 02:38:24;;;;;;;18.70;12.15;;;;;;;18.00;87.89;93714.50;5086304;28;20256;-77
2023/06/26 02:40:50;;;;;;;21.45;13.15;;;;;;;18.02;87.65;93712.19;5086188;28;20270;-77
2023/06/26 02:43:16;;;;;;;22.33;13.10;;;;;;;17.99;87.28;93715.63;5086125;28;20035;-77
2023/06/26 02:45:41;;;;;;;19.80;12.65;;;;;;;18.00;87.25;93715.25;5086229;28;20020;-76
2023/06/26 02:48:07;;;;;;;20.75;13.23;;;;;;;18.00;87.45;93720.66;5086257;28;20021;-76
2023/06/26 02:50:32;;;;;;;18.85;13.00;;;;;;;18.01;87.29;93707.94;5085848;28;20269;-77
2023/06/26 02:52:58;;;;;;;21.00;13.05;;;;;;;17.98;87.11;93711.38;5086176;28;20035;-79
2023/06/26 02:55:24;;;;;;;19.00;13.02;;;;;;;18.06;87.38;93712.25;5086241;28;20028;-78
2023/06/26 02:57:49;;;;;;;19.52;13.23;;;;;;;18.04;86.98;93709.91;5086167;28;20353;-78
2023/06/26 03:00:15;;;;;;;22.40;13.07;;;;;;;18.05;86.49;93714.16;5085725;28;20021;-76
2023/06/26 03:02:40;;;;;;;20.27;14.98;;;;;;;18.07;86.60;93722.66;5086066;28;20024;-78
2023/06/26 03:05:06;;;;;;;20.30;13.80;;;;;;;18.06;86.49;93723.81;5085939;28;20088;-76
2023/06/26 03:07:32;;;;;;;18.70;12.95;;;;;;;18.07;86.23;93728.06;5085965;28;20020;-78
2023/06/26 03:09:57;;;;;;;20.58;14.68;;;;;;;18.08;85.90;93721.53;5085985;28;20017;-78
2023/06/26 03:12:24;;;;;;;22.02;14.57;;;;;;;18.14;85.87;93722.78;5085912;28;20348;-78
2023/06/26 03:14:49;;;;;;;19.10;13.85;;;;;;;18.17;85.31;93719.34;5085592;28;20024;-76
2023/06/26 03:17:15;;;;;;;21.58;13.93;;;;;;;18.11;85.23;93726.19;5085759;28;20036;-76
2023/06/26 03:19:40;;;;;;;28.88;14.98;;;;;;;18.12;85.33;93730.47;5085467;28;20020;-76
2023/06/26 03:22:06;;;;;;;21.45;15.45;;;;;;;18.17;84.57;93727.44;5085746;28;20099;-76
2023/06/26 03:24:31;;;;;;;18.63;14.35;;;;;;;18.06;85.02;93718.44;5085486;28;20021;-77
2023/06/26 03:26:57;;;;;;;26.73;14.07;;;;;;;18.12;85.24;93727.75;5067571;28;20032;-77
2023/06/26 03:29:22;;;;;;;20.95;14.52;;;;;;;18.13;85.20;93723.91;5085366;28;20070;-77
2023/06/26 03:31:48;;;;;;;21.48;15.60;;;;;;;18.16;85.18;93720.50;5085232;28;20024;-76
2023/06/26 03:34:13;;;;;;;20.70;14.43;;;;;;;18.18;85.15;93726.31;5085300;28;20028;-77
2023/06/26 03:36:39;;;;;;;19.88;15.30;;;;;;;18.10;85.34;93724.66;5085335;28;20028;-77
2023/06/26 03:39:04;;;;;;;20.35;14.13;;;;;;;18.14;85.47;93727.41;5085501;28;20207;-77
2023/06/26 03:41:30;;;;;;;21.85;14.90;;;;;;;18.10;85.86;93727.34;5084183;28;20032;-77
2023/06/26 03:43:56;;;;;;;24.45;14.45;;;;;;;18.09;86.03;93730.41;5085256;28;20095;-77
2023/06/26 03:46:22;;;;;;;21.55;15.27;;;;;;;18.12;85.91;93727.75;5085009;28;20029;-77
2023/06/26 03:48:48;;;;;;;24.25;14.57;;;;;;;18.07;85.95;93725.34;5085159;28;20048;-77
2023/06/26 03:51:14;;;;;;;20.00;15.30;;;;;;;18.12;85.88;93727.75;5085053;28;20024;-78
2023/06/26 03:53:39;;;;;;;21.15;14.27;;;;;;;18.11;85.53;93723.50;5085030;28;20039;-77
2023/06/26 03:56:05;;;;;;;20.27;14.50;;;;;;;18.09;86.29;93728.47;5085168;28;20266;-77
2023/06/26 03:58:30;;;;;;;22.85;15.45;;;;;;;18.08;86.35;93726.16;5084891;28;20028;-77
2023/06/26 04:00:57;;;;;;;20.95;15.15;;;;;;;18.06;85.70;93725.75;5084584;28;20025;-77
2023/06/26 04:03:23;;;;;;;18.90;14.20;;;;;;;18.08;85.08;93721.53;5084806;28;20055;-77
2023/06/26 04:05:49;;;;;;;18.63;13.98;;;;;;;18.13;85.52;93723.13;5085020;28;20054;-78
2023/06/26 04:08:14;;;;;;;19.55;13.85;;;;;;;18.06;85.86;93725.75;5084783;28;20025;-77
2023/06/26 04:10:40;;;;;;;20.42;14.50;;;;;;;18.03;86.07;93719.13;5066999;28;20027;-78
2023/06/26 04:13:05;;;;;;;22.23;14.48;;;;;;;18.05;86.05;93733.03;5067160;28;20024;-78
2023/06/26 04:15:31;;;;;;;20.23;14.75;;;;;;;18.09;85.69;93725.78;5084378;28;20020;-77
2023/06/26 04:17:56;;;;;;;20.35;14.02;;;;;;;18.14;nan;93725.47;5084505;28;20020;-78
2023/06/26 04:20:22;;;;;;;19.25;15.45;;;;;;;18.15;85.51;93729.72;5066556;28;20039;-78
2023/06/26 04:22:47;;;;;;;18.90;13.85;;;;;;;18.18;85.34;93726.31;5084340;28;20047;-77
2023/06/26 04:25:12;;;;;;;19.73;13.65;;;;;;;18.22;84.87;93737.91;5084309;28;20087;-77
2023/06/26 04:27:38;;;;;;;19.42;13.70;;;;;;;18.26;84.77;93732.59;5084333;28;20098;-77
2023/06/26 04:30:05;;;;;;;17.10;12.57;;;;;;;18.30;84.25;93732.59;5084283;28;20019;-78
2023/06/26 04:32:30;;;;;;;19.50;14.20;;;;;;;18.34;84.29;93728.03;5084083;28;20040;-77
2023/06/26 04:34:56;;;;;;;18.42;13.38;;;;;;;18.33;83.29;93731.91;5084234;28;20039;-77
2023/06/26 04:37:22;;;;;;;16.05;12.98;;;;;;;18.26;83.91;93724.50;5084097;28;20025;-78
2023/06/26 04:39:48;;;;;;;21.67;14.05;;;;;;;18.30;83.75;93740.69;5084080;28;20031;-77
2023/06/26 04:42:13;;;;;;;20.63;14.00;;;;;;;18.36;83.67;93739.25;5084119;28;20024;-77
2023/06/26 04:44:40;;;;;;;19.80;14.15;;;;;;;18.36;83.94;93731.94;5083989;28;20345;-77
2023/06/26 04:47:06;;;;;;;19.40;13.70;;;;;;;18.47;84.02;93737.47;5065902;28;20070;-78
2023/06/26 04:49:32;;;;;;;17.27;13.30;;;;;;;18.55;83.87;93747.22;5083905;28;20048;-78
2023/06/26 04:51:59;;;;;;;26.40;13.27;;;;;;;18.70;83.87;93744.69;5083841;28;20016;-76
2023/06/26 04:54:25;;;;;;;19.60;12.93;;;;;;;18.78;83.85;93744.41;5083813;28;20028;-76
2023/06/26 04:56:51;;;;;;;18.88;13.13;;;;;;;18.84;82.97;93737.56;5083679;28;20044;-76
2023/06/26 04:59:16;;;;;;;20.85;13.95;;;;;;;18.97;82.62;93746.22;5083648;28;20095;-77
2023/06/26 05:01:42;;;;;;;19.13;12.93;;;;;;;19.03;82.46;93755.56;5083758;28;20020;-77
2023/06/26 05:04:08;;;;;;;16.95;12.75;;;;;;;19.05;81.55;93733.59;5083736;28;20021;-77
2023/06/26 05:06:33;;;;;;;20.88;14.20;;;;;;;19.08;83.02;93742.88;5083826;28;20332;-77
2023/06/26 05:08:59;;;;;;;16.95;13.88;;;;;;;19.06;82.58;93743.22;5065662;28;20027;-78
2023/06/26 05:11:25;;;;;;;19.23;13.85;;;;;;;18.98;83.17;93745.06;5083448;28;20028;-78
2023/06/26 05:13:50;;;;;;;20.48;14.70;;;;;;;18.93;83.14;93752.72;5083351;28;20020;-77
2023/06/26 05:16:16;;;;;;;19.17;13.50;;;;;;;18.95;82.81;93755.81;5083425;28;20020;-76
2023/06/26 05:18:41;;;;;;;18.42;13.57;;;;;;;18.95;82.80;93759.31;5083420;28;20040;-76
2023/06/26 05:21:07;;;;;;;21.90;15.55;;;;;;;18.86;82.89;93753.41;5083441;28;20070;-78
2023/06/26 05:23:34;;;;;;;18.60;14.27;;;;;;;18.87;83.34;93754.97;5065615;28;20028;-78
2023/06/26 05:26:01;;;;;;;20.63;12.98;;;;;;;18.80;83.14;93762.97;5083259;28;20025;-77
2023/06/26 05:28:28;;;;;;;22.15;13.35;;;;;;;18.88;82.65;93761.91;5065494;28;20024;-77
2023/06/26 05:30:57;;;;;;;18.63;14.30;;;;;;;18.82;82.89;93763.38;5083198;28;20047;-77
2023/06/26 05:33:24;;;;;;;22.42;13.27;;;;;;;18.93;82.84;93758.09;5065239;28;20024;-79
2023/06/26 05:35:51;;;;;;;17.52;13.90;;;;;;;19.07;83.50;93768.31;5083272;28;20064;-78
2023/06/26 05:38:17;;;;;;;22.65;12.93;;;;;;;19.13;82.69;93767.63;5083131;28;20027;-76
2023/06/26 05:40:43;;;;;;;17.20;13.63;;;;;;;19.10;82.08;93781.84;5082879;28;20247;-77
2023/06/26 05:43:09;;;;;;;22.02;14.18;;;;;;;19.02;82.06;93766.72;5082998;28;20218;-77
2023/06/26 05:45:34;;;;;;;19.40;13.55;;;;;;;19.08;82.21;93764.47;5083233;28;20274;-77
2023/06/26 05:48:00;;;;;;;17.92;12.93;;;;;;;18.97;82.35;93765.13;5082922;28;20096;-77
2023/06/26 05:50:26;;;;;;;18.48;13.75;;;;;;;19.07;82.55;93769.09;5082808;28;20037;-77
2023/06/26 05:52:52;;;;;;;20.67;13.63;;;;;;;19.01;82.37;93782.16;5082939;28;20091;-77
2023/06/26 05:55:18;;;;;;;21.80;13.90;;;;;;;19.08;82.31;93776.03;5082937;28;20032;-77
2023/06/26 05:57:45;;;;;;;21.02;13.63;;;;;;;19.14;81.61;93773.81;5082633;28;20087;-77
2023/06/26 06:00:12;;;;;;;17.08;13.32;;;;;;;19.14;81.49;93787.31;5082651;28;20039;-76
2023/06/26 06:02:38;;;;;;;18.63;13.10;;;;;;;19.23;81.78;93768.88;5082946;28;20024;-77
2023/06/26 06:05:05;;;;;;;22.55;14.07;;;;;;;19.34;81.57;93774.41;5082522;28;20027;-77
2023/06/26 06:07:33;;;;;;;20.38;13.52;;;;;;;19.31;80.59;93778.59;5082822;28;20044;-77
2023/06/26 06:10:00;;;;;;;19.08;12.93;;;;;;;19.39;80.84;93774.81;5064926;28;20035;-77
2023/06/26 06:12:26;;;;;;;15.30;12.23;;;;;;;19.44;80.75;93777.22;5082710;28;20024;-77
2023/06/26 06:14:52;;;;;;;20.08;14.35;;;;;;;19.56;81.43;93778.06;5082763;28;20214;-77
2023/06/26 06:17:17;;;;;;;19.70;12.25;;;;;;;19.72;80.23;93770.56;5082793;28;20023;-77
2023/06/26 06:19:43;;;;;;;20.30;13.32;;;;;;;19.86;79.19;93774.53;5064736;28;20021;-77
2023/06/26 06:22:08;;;;;;;17.85;12.38;;;;;;;19.90;78.17;93770.69;5064591;28;20020;-77
2023/06/26 06:24:34;;;;;;;18.95;12.45;;;;;;;19.95;78.05;93772.28;5082776;28;20024;-78
2023/06/26 06:26:59;;;;;;;20.40;12.13;;;;;;;20.02;77.98;93767.69;5082612;28;20095;-78
2023/06/26 06:29:25;;;;;;;16.13;12.45;;;;;;;19.97;78.38;93775.41;5082669;28;20310;-77
2023/06/26 06:31:51;;;;;;;19.60;13.50;;;;;;;20.08;78.57;93760.00;5082612;28;20066;-78
2023/06/26 06:34:16;;;;;;;15.40;12.07;;;;;;;20.14;78.34;93763.16;5082456;28;20022;-78
2023/06/26 06:36:42;;;;;;;16.98;11.98;;;;;;;20.22;76.59;93760.09;5082511;28;20036;-78
2023/06/26 06:39:08;;;;;;;14.13;10.70;;;;;;;20.25;76.35;93769.38;5082414;28;20016;-78
2023/06/26 06:41:33;;;;;;;16.85;11.95;;;;;;;20.24;77.79;93763.22;5082637;28;20219;-78
2023/06/26 06:43:59;;;;;;;16.35;11.98;;;;;;;20.15;76.82;93765.47;5082398;28;20016;-77
2023/06/26 06:46:26;;;;;;;14.00;10.88;;;;;;;20.04;76.65;93759.19;5082498;28;20310;-77
2023/06/26 06:48:52;;;;;;;18.92;10.88;;;;;;;20.11;75.01;93759.28;5082186;28;20082;-77
2023/06/26 06:51:18;;;;;;;25.42;11.18;;;;;;;20.18;75.42;93758.53;5082226;28;20036;-77
2023/06/26 06:53:43;;;;;;;12.82;10.38;;;;;;;20.32;75.71;93755.91;5082275;28;20324;-77
2023/06/26 06:56:09;;;;;;;13.75;10.40;;;;;;;20.39;75.23;93757.88;5082445;28;20039;-77
2023/06/26 06:58:35;;;;;;;13.77;10.40;;;;;;;20.49;74.62;93757.16;5082323;28;20062;-76
2023/06/26 07:01:02;;;;;;;12.90;9.95;;;;;;;20.59;73.62;93761.13;5082221;28;20024;-77
2023/06/26 07:03:28;;;;;;;18.92;10.93;;;;;;;20.67;74.21;93756.53;5082267;28;20091;-78
2023/06/26 07:05:53;;;;;;;13.23;9.68;;;;;;;20.68;73.89;93750.75;5081976;28;20020;-78
2023/06/26 07:08:19;;;;;;;14.65;10.50;;;;;;;20.72;73.37;93756.94;5081977;28;20028;-78
2023/06/26 07:10:44;;;;;;;16.77;10.32;;;;;;;20.82;73.87;93752.72;5082278;28;20020;-78
2023/06/26 07:13:10;;;;;;;14.60;8.68;;;;;;;20.89;71.90;93758.19;5082224;28;20218;-77
2023/06/26 07:15:35;;;;;;;16.02;9.73;;;;;;;21.01;72.27;93754.34;5082345;28;20323;-78
2023/06/26 07:18:01;;;;;;;16.45;9.48;;;;;;;20.98;71.51;93758.59;5085604;28;20020;-76
2023/06/26 07:20:26;;;;;;;11.98;8.38;;;;;;;21.02;70.46;93751.28;5085504;28;20103;-76
2023/06/26 07:22:52;;;;;;;9.90;7.93;;;;;;;21.15;70.38;93756.34;5085461;28;20024;-76
2023/06/26 07:25:18;;;;;;;14.82;8.48;;;;;;;21.17;70.09;93746.66;5085543;28;20027;-77
2023/06/26 07:27:44;;;;;;;9.23;7.20;;;;;;;21.06;68.54;93758.63;5085508;28;20020;-77
2023/06/26 07:30:10;;;;;;;18.17;9.05;;;;;;;21.06;70.63;93750.50;5085363;28;20015;-77
2023/06/26 07:32:36;;;;;;;13.80;8.52;;;;;;;21.14;70.89;93749.34;5085622;28;20016;-76
2023/06/26 07:35:02;;;;;;;11.40;8.40;;;;;;;21.34;68.15;93747.88;5085221;28;20048;-76
2023/06/26 07:37:27;;;;;;;12.05;6.95;;;;;;;21.39;66.96;93755.63;5085268;28;20088;-77
2023/06/26 07:39:53;;;;;;;10.52;7.45;;;;;;;21.39;67.98;93763.78;5067455;28;20025;-77
2023/06/26 07:42:18;;;;;;;12.07;6.25;;;;;;;21.37;66.01;93749.03;5085267;28;20326;-77
2023/06/26 07:44:43;;;;;;;11.35;6.55;;;;;;;21.37;66.19;93747.13;5085413;28;20329;-77
2023/06/26 07:47:10;;;;;;;8.38;5.45;;;;;;;21.56;65.38;93756.84;5085164;28;20040;-78
2023/06/26 07:49:35;;;;;;;11.20;5.28;;;;;;;21.63;64.23;93762.25;5085348;28;20047;-78
2023/06/26 07:52:01;;;;;;;10.90;5.88;;;;;;;21.62;64.70;93752.59;5085090;28;20040;-77
2023/06/26 07:54:26;;;;;;;10.50;7.00;;;;;;;;;;5084973;28;20017;-78
2023/06/26 07:56:54;;;;;;;10.02;6.03;;;;;;;21.97;66.00;93764.63;5084861;28;20028;-77
2023/06/26 07:59:21;;;;;;;12.88;6.30;;;;;;;21.93;63.91;93765.78;5085041;28;20024;-77
2023/06/26 08:01:46;;;;;;;8.07;5.20;;;;;;;21.97;61.94;93759.19;5084850;28;20028;-77
2023/06/26 08:04:14;;;;;;;11.02;5.05;;;;;;;22.01;62.12;93751.06;5084839;28;20199;-77
2023/06/26 08:06:40;;;;;;;10.73;5.05;;;;;;;22.13;60.94;93745.25;5084578;28;20067;-76
2023/06/26 08:09:07;;;;;;;13.45;6.13;;;;;;;22.16;62.75;93749.88;5084830;28;20032;-77
2023/06/26 08:11:33;;;;;;;10.20;7.30;;;;;;;22.22;63.81;93758.41;5084775;28;20386;-78
2023/06/26 08:13:59;;;;;;;8.38;5.75;;;;;;;22.24;62.30;93758.81;5084633;28;20062;-77
2023/06/26 08:16:24;;;;;;;8.70;5.43;;;;;;;22.33;61.42;93747.59;5084712;28;20337;-77
2023/06/26 08:18:50;;;;;;;10.68;5.88;;;;;;;22.22;60.84;93744.84;5084407;28;20091;-76
2023/06/26 08:21:15;;;;;;;12.13;6.35;;;;;;;22.32;61.61;93741.34;5084246;28;20032;-77
2023/06/26 08:23:40;;;;;;;10.43;6.35;;;;;;;22.45;61.96;93755.31;5084419;28;20025;-77
2023/06/26 08:26:07;;;;;;;12.88;6.70;;;;;;;22.38;61.25;93755.31;5084609;28;20028;-78
2023/06/26 08:28:33;;;;;;;8.52;5.95;;;;;;;22.23;62.07;93749.91;5083950;28;20214;-78
2023/06/26 08:30:59;;;;;;;8.63;5.70;;;;;;;22.26;62.81;93753.00;5084319;28;20035;-77
2023/06/26 08:33:25;;;;;;;9.27;5.57;;;;;;;22.32;60.65;93746.78;5084139;28;20020;-76
2023/06/26 08:35:50;;;;;;;14.82;6.07;;;;;;;22.32;60.43;93756.88;5084299;28;20408;-78
2023/06/26 08:38:16;;;;;;;10.32;5.68;;;;;;;22.26;60.67;93748.34;5084372;28;20032;-77
2023/06/26 08:40:41;;;;;;;7.30;5.47;;;;;;;22.19;59.72;93764.63;5083933;28;20024;-77
2023/06/26 08:43:07;;;;;;;9.60;5.28;;;;;;;22.14;61.13;93756.88;5084306;28;20069;-77
2023/06/26 08:45:32;;;;;;;8.82;5.72;;;;;;;22.23;60.75;93752.63;5084212;28;20091;-77
2023/06/26 08:48:00;;;;;;;15.52;6.00;;;;;;;22.42;59.43;93750.66;5066303;28;20261;-77
2023/06/26 08:50:30;;;;;;;13.00;6.03;;;;;;;22.66;59.46;93759.91;5083802;28;20040;-77
2023/06/26 08:53:04;;;;;;;6.95;5.10;;;;;;;22.82;58.15;93762.22;5066108;28;20024;-77
2023/06/26 08:55:33;;;;;;;11.50;4.72;;;;;;;22.82;58.52;93756.78;5083970;28;20046;-77
2023/06/26 08:57:59;;;;;;;10.68;4.90;;;;;;;22.85;58.35;93747.81;5084081;28;20032;-77
2023/06/26 09:00:24;;;;;;;10.02;4.80;;;;;;;22.90;58.16;93760.22;5083503;28;20384;-77
2023/06/26 09:02:50;;;;;;;6.72;4.97;;;;;;;22.91;57.40;93754.41;5065797;28;20020;-76
2023/06/26 09:05:15;;;;;;;9.55;4.43;;;;;;;22.97;55.77;93752.81;5083633;28;20314;-76
2023/06/26 09:07:41;;;;;;;9.27;4.32;;;;;;;22.89;56.10;93751.28;5083527;28;20062;-76
2023/06/26 09:10:08;;;;;;;10.75;3.63;;;;;;;22.93;55.06;93749.34;5083599;28;20020;-77
2023/06/26 09:12:34;;;;;;;14.18;4.22;;;;;;;23.11;57.06;93753.97;5083722;28;20255;-77
2023/06/26 09:15:02;;;;;;;6.22;4.38;;;;;;;23.08;57.29;93752.03;5065565;28;20141;-77
2023/06/26 09:17:37;;;;;;;14.55;5.22;;;;;;;22.96;56.92;93745.06;5083363;28;20593;-77
2023/06/26 09:20:04;;;;;;;8.35;4.75;;;;;;;23.05;55.68;93747.41;5083250;28;20103;-77
2023/06/26 09:22:33;;;;;;;11.38;5.10;;;;;;;23.13;57.03;93746.19;5083361;28;20095;-78
2023/06/26 09:24:58;;;;;;;6.95;4.43;;;;;;;23.23;56.64;93748.84;5083350;28;20032;-78
2023/06/26 09:27:24;;;;;;;6.78;4.57;;;;;;;23.37;54.20;93748.00;5083078;28;20256;-78
2023/06/26 09:29:50;;;;;;;6.43;4.63;;;;;;;23.35;54.22;93755.78;5083289;28;20025;-77
2023/06/26 09:32:16;;;;;;;7.80;4.60;;;;;;;23.20;55.92;93749.66;5065427;28;20222;-77
2023/06/26 09:34:46;;;;;;;9.30;4.90;;;;;;;23.19;56.64;93744.59;5083144;28;20379;-77
2023/06/26 09:37:13;;;;;;;8.35;5.13;;;;;;;23.14;54.92;93756.69;5083097;28;20048;-76
2023/06/26 09:39:39;;;;;;;7.03;4.45;;;;;;;23.07;56.54;93750.50;5082505;28;20322;-77
2023/06/26 09:42:04;;;;;;;8.93;4.55;;;;;;;23.05;56.93;93741.97;5065128;28;20040;-77
2023/06/26 09:44:31;;;;;;;6.35;4.70;;;;;;;23.24;56.55;93749.63;5083128;28;20267;-77
2023/06/26 09:46:57;;;;;;;7.63;5.20;;;;;;;23.41;55.49;93739.84;5083156;28;20091;-76
2023/06/26 09:49:23;;;;;;;12.60;5.90;;;;;;;23.66;55.38;93744.34;5082803;28;20297;-77
2023/06/26 09:51:50;;;;;;;9.52;4.97;;;;;;;23.66;51.99;93747.81;5082981;28;20020;-77
2023/06/26 09:54:17;;;;;;;8.45;4.38;;;;;;;23.53;52.71;93754.91;5083014;28;20032;-78
2023/06/26 09:56:43;;;;;;;8.50;4.13;;;;;;;23.37;50.48;93748.00;5082743;28;20024;-77
2023/06/26 09:59:09;;;;;;;6.25;4.13;;;;;;;23.28;51.41;93758.53;5083227;28;20059;-78
2023/06/26 10:01:41;;;;;;;17.52;4.50;;;;;;;23.35;51.54;93747.63;5082890;28;20032;-77
2023/06/26 10:04:06;;;;;;;7.75;4.45;;;;;;;23.39;50.58;93753.81;5083104;28;20031;-76
2023/06/26 10:06:35;;;;;;;7.90;4.53;;;;;;;23.47;50.97;93748.31;5084800;28;20022;-76
2023/06/26 10:09:03;;;;;;;7.82;4.38;;;;;;;23.50;51.50;93740.16;5082547;28;20025;-76
2023/06/26 10:11:40;;;;;;;9.88;5.00;;;;;;;23.59;52.83;93739.69;5082744;28;20322;-77
2023/06/26 10:14:07;;;;;;;8.48;5.15;;;;;;;23.61;53.11;93740.06;5082954;28;20078;-77
2023/06/26 10:16:37;;;;;;;9.10;4.63;;;;;;;23.77;50.88;93726.81;5082612;28;20032;-76
2023/06/26 10:19:06;;;;;;;8.45;4.70;;;;;;;23.87;51.04;93725.16;5082635;28;20100;-76
2023/06/26 10:21:34;;;;;;;7.20;4.53;;;;;;;23.85;50.98;93726.72;5082698;28;20021;-77
2023/06/26 10:24:00;;;;;;;6.82;4.68;;;;;;;23.94;50.73;93735.22;5082697;28;20020;-76
2023/06/26 10:26:28;;;;;;;10.00;4.55;;;;;;;23.97;50.43;93723.53;5082633;28;20256;-77
2023/06/26 10:28:56;;;;;;;13.35;4.70;;;;;;;24.03;51.80;93732.78;5082545;28;20026;-77
2023/06/26 10:31:26;;;;;;;7.88;4.90;;;;;;;24.07;48.71;93741.72;5064800;28;20031;-77
2023/06/26 10:33:52;;;;;;;9.02;4.38;;;;;;;24.05;47.47;93752.22;5064732;28;20024;-78
2023/06/26 10:36:19;;;;;;;7.68;3.67;;;;;;;24.01;46.32;93735.16;5064671;28;20024;-77
2023/06/26 10:38:53;;;;;;;6.22;3.83;;;;;;;24.09;47.33;93728.47;5082647;28;20066;-77
2023/06/26 10:41:23;;;;;;;8.00;4.40;;;;;;;24.05;46.80;93729.69;5082386;28;20310;-78
2023/06/26 10:44:07;;;;;;;6.18;4.28;;;;;;;24.00;48.20;93733.63;5082438;28;20066;-78
2023/06/26 10:46:47;;;;;;;17.35;4.72;;;;;;;23.98;49.09;93727.81;5082492;28;20083;-78
2023/06/26 10:49:13;;;;;;;11.13;4.45;;;;;;;24.13;48.23;93734.66;5082438;28;20265;-77
2023/06/26 10:51:46;;;;;;;9.40;4.45;;;;;;;24.29;48.91;93734.13;5085446;28;20050;-78
2023/06/26 10:54:14;;;;;;;7.13;4.88;;;;;;;24.42;46.22;93731.66;5086331;28;20098;-78
2023/06/26 10:56:45;;;;;;;10.75;4.90;;;;;;;24.28;46.08;93731.81;5086208;28;20020;-78
2023/06/26 10:59:25;;;;;;;7.35;4.75;;;;;;;24.23;47.06;93725.63;5085979;28;20195;-78
2023/06/26 11:02:01;;;;;;;9.38;4.15;;;;;;;24.23;45.49;93731.06;5085869;28;20074;-77
2023/06/26 11:04:47;;;;;;;6.35;4.50;;;;;;;24.19;48.48;93730.31;5085942;28;20017;-78
2023/06/26 11:07:16;;;;;;;12.55;5.20;;;;;;;24.17;47.22;93727.22;5068234;28;20020;-78
2023/06/26 11:09:58;;;;;;;6.13;3.60;;;;;;;24.19;47.77;93741.22;5085719;28;20025;-78
2023/06/26 11:12:37;;;;;;;8.32;5.07;;;;;;;24.21;48.33;93727.97;5085769;28;20020;-78
2023/06/26 11:15:13;;;;;;;10.75;4.60;;;;;;;24.22;48.88;93724.09;5085875;28;20095;-77
2023/06/26 11:17:39;;;;;;;8.38;5.40;;;;;;;24.22;48.49;93732.25;5085661;28;20262;-78
2023/06/26 11:20:11;;;;;;;16.40;5.95;;;;;;;24.29;48.59;93723.22;5085845;28;20092;-77